createdAt,value
2023-02-12T00:00:00.332Z,31.52
2023-02-12T00:02:27.175Z,33.03
2023-02-12T00:04:53.845Z,33.28
2023-02-12T00:07:20.472Z,31.63
2023-02-12T00:09:47.101Z,32.70
2023-02-12T00:12:13.720Z,38.08
2023-02-12T00:14:40.471Z,34.05
2023-02-12T00:17:07.082Z,35.20
2023-02-12T00:19:33.722Z,35.95
2023-02-12T00:22:00.343Z,34.00
2023-02-12T00:24:27.954Z,32.30
2023-02-12T00:26:54.694Z,34.42
2023-02-12T00:29:21.397Z,38.20
2023-02-12T00:31:48.118Z,32.10
2023-02-12T00:34:14.888Z,31.75
2023-02-12T00:36:41.523Z,34.60
2023-02-12T00:39:08.141Z,33.53
2023-02-12T00:41:34.731Z,32.20
2023-02-12T00:44:01.342Z,31.00
2023-02-12T00:46:28.057Z,29.98
2023-02-12T00:48:54.844Z,31.25
2023-02-12T00:51:21.697Z,32.45
2023-02-12T00:53:48.384Z,31.23
2023-02-12T00:56:15.218Z,38.75
2023-02-12T00:58:41.939Z,30.23
2023-02-12T01:01:08.689Z,35.42
2023-02-12T01:03:35.446Z,30.73
2023-02-12T01:06:02.173Z,29.92
2023-02-12T01:08:28.839Z,30.00
2023-02-12T01:10:59.387Z,35.08
2023-02-12T01:13:27.001Z,36.58
2023-02-12T01:16:23.422Z,29.05
2023-02-12T01:18:54.440Z,31.23
2023-02-12T01:21:25.572Z,29.17
2023-02-12T01:23:52.212Z,31.02
2023-02-12T01:26:20.834Z,35.30
2023-02-12T01:28:53.621Z,36.33
2023-02-12T01:31:23.668Z,29.85
2023-02-12T01:33:52.076Z,33.20
2023-02-12T01:36:19.045Z,27.90
2023-02-12T01:38:45.666Z,27.85
2023-02-12T01:41:15.706Z,32.05
2023-02-12T01:43:42.501Z,31.25
2023-02-12T01:46:13.448Z,29.27
2023-02-12T01:48:45.510Z,31.13
2023-02-12T01:51:16.492Z,30.90
2023-02-12T01:53:50.922Z,34.33
2023-02-12T01:56:18.197Z,29.48
2023-02-12T01:58:47.416Z,29.20
2023-02-12T02:01:19.737Z,37.88
2023-02-12T02:03:50.058Z,37.22
2023-02-12T02:06:21.328Z,32.60
2023-02-12T02:08:48.589Z,29.45
2023-02-12T02:11:33.821Z,37.83
2023-02-12T02:14:19.115Z,33.47
2023-02-12T02:17:06.698Z,41.30
2023-02-12T02:20:01.623Z,38.15
2023-02-12T02:22:59.308Z,31.65
2023-02-12T02:25:46.593Z,33.33
2023-02-12T02:28:19.077Z,33.08
2023-02-12T02:31:05.787Z,31.90
2023-02-12T02:33:53.910Z,29.60
2023-02-12T02:36:32.670Z,28.52
2023-02-12T02:39:11.119Z,31.38
2023-02-12T02:41:53.296Z,26.70
2023-02-12T02:44:36.729Z,30.88
2023-02-12T02:47:08.047Z,29.67
2023-02-12T02:49:40.475Z,29.38
2023-02-12T02:52:12.439Z,28.58
2023-02-12T02:54:54.468Z,29.38
2023-02-12T02:57:29.810Z,29.52
2023-02-12T03:00:05.287Z,26.92
2023-02-12T03:02:35.497Z,25.52
2023-02-12T03:05:22.498Z,30.35
2023-02-12T03:07:58.053Z,28.45
2023-02-12T03:10:31.682Z,28.33
2023-02-12T03:13:14.753Z,28.38
2023-02-12T03:16:02.943Z,29.25
2023-02-12T03:18:42.790Z,30.55
2023-02-12T03:21:16.087Z,32.67
2023-02-12T03:23:52.927Z,32.10
2023-02-12T03:26:27.449Z,29.00
2023-02-12T03:28:54.174Z,36.40
2023-02-12T03:31:35.667Z,32.05
2023-02-12T03:34:15.321Z,30.33
2023-02-12T03:37:05.973Z,29.38
2023-02-12T03:39:35.330Z,27.88
2023-02-12T03:42:16.252Z,29.88
2023-02-12T03:44:56.520Z,28.92
2023-02-12T03:47:37.992Z,28.48
2023-02-12T03:50:18.919Z,28.65
2023-02-12T03:52:47.161Z,31.23
2023-02-12T03:55:14.560Z,31.23
2023-02-12T03:57:45.537Z,30.05
2023-02-12T04:00:20.987Z,31.10
2023-02-12T04:02:48.297Z,30.13
2023-02-12T04:05:24.304Z,29.80
2023-02-12T04:07:52.754Z,29.90
2023-02-12T04:10:28.087Z,32.35
2023-02-12T04:13:01.125Z,30.25
2023-02-12T04:15:37.793Z,29.38
2023-02-12T04:18:20.571Z,29.75
2023-02-12T04:21:25.694Z,29.95
2023-02-12T04:24:26.173Z,32.08
2023-02-12T04:27:16.410Z,28.73
2023-02-12T04:29:52.118Z,27.92
2023-02-12T04:32:29.675Z,29.02
2023-02-12T04:35:05.595Z,33.67
2023-02-12T04:37:43.899Z,28.30
2023-02-12T04:40:14.529Z,35.55
2023-02-12T04:42:46.422Z,36.58
2023-02-12T04:45:15.995Z,31.50
2023-02-12T04:47:42.662Z,37.63
2023-02-12T04:50:09.760Z,33.00
2023-02-12T04:52:36.387Z,39.38
2023-02-12T04:55:03.423Z,32.80
2023-02-12T04:57:30.097Z,33.13
2023-02-12T04:59:56.767Z,31.77
2023-02-12T05:02:23.501Z,31.33
2023-02-12T05:04:50.968Z,30.42
2023-02-12T05:07:17.662Z,34.55
2023-02-12T05:09:44.295Z,33.83
2023-02-12T05:12:10.921Z,31.50
2023-02-12T05:14:37.595Z,32.33
2023-02-12T05:17:04.197Z,28.77
2023-02-12T05:19:30.938Z,33.75
2023-02-12T05:21:57.606Z,29.30
2023-02-12T05:24:24.291Z,30.05
2023-02-12T05:26:51.040Z,29.70
2023-02-12T05:29:17.941Z,30.52
2023-02-12T05:31:45.187Z,36.00
2023-02-12T05:34:13.120Z,30.95
2023-02-12T05:36:40.296Z,31.92
2023-02-12T05:39:07.452Z,34.92
2023-02-12T05:41:37.238Z,33.17
2023-02-12T05:44:05.201Z,35.20
2023-02-12T05:46:32.344Z,33.03
2023-02-12T05:48:59.190Z,33.00
2023-02-12T05:51:27.484Z,41.10
2023-02-12T05:54:01.798Z,41.15
2023-02-12T05:56:32.310Z,39.53
2023-02-12T05:59:02.453Z,39.55
2023-02-12T06:01:43.471Z,50.55
2023-02-12T06:04:23.669Z,43.03
2023-02-12T06:06:52.119Z,41.92
2023-02-12T06:09:19.492Z,43.28
2023-02-12T06:11:46.364Z,44.90
2023-02-12T06:14:17.061Z,38.55
2023-02-12T06:16:49.605Z,45.83
2023-02-12T06:19:17.222Z,48.08
2023-02-12T06:21:44.356Z,41.80
2023-02-12T06:24:15.922Z,49.53
2023-02-12T06:26:43.208Z,42.25
2023-02-12T06:29:09.889Z,37.78
2023-02-12T06:31:37.532Z,38.35
2023-02-12T06:34:07.696Z,38.53
2023-02-12T06:36:36.353Z,36.95
2023-02-12T06:39:03.874Z,37.63
2023-02-12T06:41:30.598Z,38.75
2023-02-12T06:43:57.203Z,45.50
2023-02-12T06:46:24.208Z,36.70
2023-02-12T06:48:55.382Z,44.38
2023-02-12T06:51:23.536Z,45.22
2023-02-12T06:53:51.540Z,44.22
2023-02-12T06:56:18.788Z,38.13
2023-02-12T06:58:47.533Z,34.78
2023-02-12T07:01:17.778Z,41.72
2023-02-12T07:03:55.776Z,37.80
2023-02-12T07:06:23.028Z,35.78
2023-02-12T07:08:49.990Z,36.30
2023-02-12T07:11:17.536Z,38.78
2023-02-12T07:13:45.240Z,36.50
2023-02-12T07:16:14.583Z,37.13
2023-02-12T07:21:08.724Z,34.00
2023-02-12T07:23:36.404Z,45.53
2023-02-12T07:26:07.650Z,43.80
2023-02-12T07:28:35.201Z,40.58
2023-02-12T07:31:16.572Z,41.33
2023-02-12T07:33:43.618Z,41.58
2023-02-12T07:36:13.400Z,39.00
2023-02-12T07:38:40.615Z,36.72
2023-02-12T07:41:17.003Z,38.90
2023-02-12T07:43:45.872Z,38.67
2023-02-12T07:46:16.881Z,39.22
2023-02-12T07:48:44.601Z,37.47
2023-02-12T07:51:13.895Z,37.35
2023-02-12T07:53:41.129Z,39.42
2023-02-12T07:56:17.573Z,43.40
2023-02-12T07:58:46.100Z,39.15
2023-02-12T08:01:24.445Z,40.43
2023-02-12T08:03:51.689Z,38.28
2023-02-12T08:06:23.724Z,46.15
2023-02-12T08:08:57.146Z,43.10
2023-02-12T08:11:25.438Z,40.83
2023-02-12T08:13:52.710Z,40.75
2023-02-12T08:16:22.520Z,39.60
2023-02-12T08:18:50.116Z,39.65
2023-02-12T08:21:28.209Z,40.03
2023-02-12T08:23:56.477Z,40.38
2023-02-12T08:26:24.462Z,42.13
2023-02-12T08:28:54.481Z,37.80
2023-02-12T08:31:27.790Z,37.95
2023-02-12T08:33:55.699Z,35.85
2023-02-12T08:36:24.970Z,38.22
2023-02-12T08:38:51.929Z,39.45
2023-02-12T08:41:24.487Z,38.70
2023-02-12T08:43:53.862Z,38.83
2023-02-12T08:46:23.115Z,38.22
2023-02-12T08:48:57.048Z,39.83
2023-02-12T08:51:26.570Z,37.05
2023-02-12T08:53:56.680Z,37.15
2023-02-12T08:56:24.968Z,39.50
2023-02-12T08:58:52.450Z,38.28
2023-02-12T09:01:24.722Z,37.65
2023-02-12T09:03:52.459Z,35.97
2023-02-12T09:06:21.436Z,38.03
2023-02-12T09:08:48.794Z,36.50
2023-02-12T09:11:18.429Z,36.75
2023-02-12T09:13:46.988Z,41.05
2023-02-12T09:16:14.471Z,39.20
2023-02-12T09:18:41.824Z,34.50
2023-02-12T09:21:22.685Z,35.72
2023-02-12T09:23:49.969Z,33.70
2023-02-12T09:26:20.745Z,33.63
2023-02-12T09:28:48.752Z,33.08
2023-02-12T09:31:18.377Z,33.50
2023-02-12T09:33:45.108Z,31.92
2023-02-12T09:36:16.913Z,29.75
2023-02-12T09:38:44.257Z,33.92
2023-02-12T09:41:32.356Z,32.47
2023-02-12T09:44:25.313Z,31.25
2023-02-12T09:46:58.958Z,33.38
2023-02-12T09:49:46.648Z,29.15
2023-02-12T09:52:17.995Z,28.33
2023-02-12T09:54:45.241Z,28.40
2023-02-12T09:57:25.301Z,24.23
2023-02-12T09:59:58.356Z,27.75
2023-02-12T10:02:25.127Z,26.92
2023-02-12T10:05:01.277Z,25.50
2023-02-12T10:07:51.291Z,26.35
2023-02-12T10:10:27.171Z,26.52
2023-02-12T10:13:00.100Z,25.55
2023-02-12T10:15:34.484Z,26.30
2023-02-12T10:18:49.728Z,27.35
2023-02-12T10:21:40.521Z,24.17
2023-02-12T10:24:41.454Z,25.13
2023-02-12T10:27:25.736Z,23.70
2023-02-12T10:29:54.826Z,24.38
2023-02-12T10:32:26.829Z,25.08
2023-02-12T10:34:56.560Z,26.15
2023-02-12T10:37:32.570Z,21.95
2023-02-12T10:40:06.338Z,23.10
2023-02-12T10:42:40.928Z,22.45
2023-02-12T10:45:15.266Z,22.00
2023-02-12T10:47:42.009Z,23.42
2023-02-12T10:50:38.205Z,22.70
2023-02-12T10:53:05.011Z,19.98
2023-02-12T10:55:35.559Z,21.88
2023-02-12T10:58:04.546Z,20.98
2023-02-12T11:00:34.116Z,18.50
2023-02-12T11:03:12.617Z,17.05
2023-02-12T11:05:42.940Z,17.20
2023-02-12T11:08:33.927Z,17.42
2023-02-12T11:11:05.100Z,18.77
2023-02-12T11:13:32.137Z,17.98
2023-02-12T11:15:59.242Z,18.80
2023-02-12T11:18:28.968Z,19.70
2023-02-12T11:20:59.925Z,18.92
2023-02-12T11:23:34.217Z,19.80
2023-02-12T11:26:21.036Z,17.67
2023-02-12T11:28:55.556Z,16.58
2023-02-12T11:31:28.529Z,16.92
2023-02-12T11:34:17.348Z,17.63
2023-02-12T11:36:50.601Z,18.23
2023-02-12T11:39:39.090Z,17.42
2023-02-12T11:42:15.385Z,16.80
2023-02-12T11:44:48.501Z,18.63
2023-02-12T11:47:36.230Z,15.45
2023-02-12T11:50:05.877Z,15.15
2023-02-12T11:52:35.613Z,14.48
2023-02-12T11:55:19.128Z,13.95
2023-02-12T11:57:48.208Z,15.05
2023-02-12T12:00:35.815Z,15.30
2023-02-12T12:03:17.712Z,13.77
2023-02-12T12:05:51.490Z,13.73
2023-02-12T12:08:29.798Z,15.40
2023-02-12T12:11:12.795Z,14.90
2023-02-12T12:13:48.024Z,15.88
2023-02-12T12:16:41.511Z,14.20
2023-02-12T12:19:43.345Z,14.30
2023-02-12T12:22:48.819Z,13.65
2023-02-12T12:25:30.518Z,16.77
2023-02-12T12:28:20.405Z,17.27
2023-02-12T12:31:08.517Z,13.55
2023-02-12T12:33:56.606Z,12.32
2023-02-12T12:36:23.256Z,13.05
2023-02-12T12:39:01.912Z,12.57
2023-02-12T12:41:55.972Z,10.90
2023-02-12T12:44:44.007Z,9.57
2023-02-12T12:47:28.835Z,8.75
2023-02-12T12:50:21.248Z,8.30
2023-02-12T12:52:47.822Z,9.38
2023-02-12T12:55:34.207Z,8.77
2023-02-12T12:58:07.733Z,9.60
2023-02-12T13:01:04.029Z,9.82
2023-02-12T13:03:39.841Z,8.85
2023-02-12T13:06:31.321Z,9.07
2023-02-12T13:09:26.671Z,8.73
2023-02-12T13:11:56.127Z,8.00
2023-02-12T13:17:27.076Z,9.50
2023-02-12T13:20:04.677Z,9.75
2023-02-12T13:22:50.185Z,10.73
2023-02-12T13:25:40.141Z,10.40
2023-02-12T13:28:14.932Z,9.98
2023-02-12T13:30:49.525Z,9.55
2023-02-12T13:33:24.417Z,9.88
2023-02-12T13:35:59.373Z,10.05
2023-02-12T13:38:32.108Z,10.52
2023-02-12T13:41:03.173Z,10.50
2023-02-12T13:44:00.232Z,11.88
2023-02-12T13:46:50.112Z,9.88
2023-02-12T13:49:38.587Z,9.65
2023-02-12T13:52:11.973Z,9.93
2023-02-12T13:55:10.655Z,10.40
2023-02-12T13:57:37.290Z,10.25
2023-02-12T14:00:08.952Z,10.48
2023-02-12T14:02:37.334Z,9.63
2023-02-12T14:05:22.655Z,9.20
2023-02-12T14:07:52.983Z,10.50
2023-02-12T14:10:39.720Z,9.23
2023-02-12T14:13:20.744Z,9.50
2023-02-12T14:15:56.282Z,9.45
2023-02-12T14:18:25.420Z,8.93
2023-02-12T14:21:13.958Z,9.35
2023-02-12T14:23:46.003Z,9.60
2023-02-12T14:26:23.587Z,9.23
2023-02-12T14:28:57.940Z,8.70
2023-02-12T14:31:27.676Z,8.30
2023-02-12T14:34:06.806Z,8.35
2023-02-12T14:36:33.475Z,8.60
2023-02-12T14:39:04.057Z,7.93
2023-02-12T14:41:34.861Z,8.85
2023-02-12T14:44:30.795Z,8.95
2023-02-12T14:47:21.627Z,8.63
2023-02-12T14:49:55.786Z,8.43
2023-02-12T14:52:39.663Z,10.52
2023-02-12T14:55:19.074Z,9.38
2023-02-12T15:00:21.339Z,8.45
2023-02-12T15:03:12.591Z,9.40
2023-02-12T15:05:48.408Z,8.57
2023-02-12T15:08:49.673Z,9.65
2023-02-12T15:11:35.216Z,10.13
2023-02-12T15:14:11.588Z,10.85
2023-02-12T15:16:52.873Z,10.98
2023-02-12T15:19:47.024Z,10.70
2023-02-12T15:22:30.627Z,10.45
2023-02-12T15:25:19.255Z,9.45
2023-02-12T15:27:48.818Z,10.07
2023-02-12T15:30:26.129Z,9.50
2023-02-12T15:32:56.371Z,9.50
2023-02-12T15:35:27.477Z,9.23
2023-02-12T15:37:56.140Z,8.20
2023-02-12T15:40:23.417Z,9.23
2023-02-12T15:42:59.293Z,10.50
2023-02-12T15:45:31.360Z,11.25
2023-02-12T15:48:20.814Z,12.30
2023-02-12T15:53:17.358Z,9.18
2023-02-12T15:55:48.622Z,8.30
2023-02-12T15:58:26.656Z,8.30
2023-02-12T16:00:55.579Z,7.95
2023-02-12T16:03:25.290Z,8.55
2023-02-12T16:05:56.282Z,8.43
2023-02-12T16:08:24.427Z,9.07
2023-02-12T16:10:54.062Z,8.38
2023-02-12T16:13:35.464Z,8.18
2023-02-12T16:16:15.894Z,8.52
2023-02-12T16:18:43.540Z,8.52
2023-02-12T16:21:22.342Z,8.00
2023-02-12T16:23:51.257Z,8.25
2023-02-12T16:26:26.651Z,8.75
2023-02-12T16:28:56.751Z,9.32
2023-02-12T16:31:26.441Z,8.80
2023-02-12T16:33:56.205Z,8.63
2023-02-12T16:36:22.823Z,8.20
2023-02-12T16:39:02.243Z,8.35
2023-02-12T16:41:33.532Z,8.60
2023-02-12T16:44:00.095Z,7.90
2023-02-12T16:46:30.476Z,8.73
2023-02-12T16:49:00.632Z,8.27
2023-02-12T16:51:30.097Z,8.80
2023-02-12T16:56:27.285Z,8.57
2023-02-12T16:58:58.471Z,8.70
2023-02-12T17:01:34.523Z,8.15
2023-02-12T17:04:05.695Z,8.60
2023-02-12T17:06:33.134Z,7.45
2023-02-12T17:09:00.371Z,8.02
2023-02-12T17:11:29.082Z,8.40
2023-02-12T17:13:56.780Z,10.32
2023-02-12T17:16:32.275Z,9.40
2023-02-12T17:19:00.600Z,9.48
2023-02-12T17:21:39.739Z,10.00
2023-02-12T17:24:29.307Z,9.07
2023-02-12T17:26:56.179Z,8.27
2023-02-12T17:29:24.966Z,7.97
2023-02-12T17:31:53.931Z,8.40
2023-02-12T17:34:20.775Z,8.20
2023-02-12T17:36:47.534Z,8.15
2023-02-12T17:39:15.720Z,8.93
2023-02-12T17:41:44.277Z,7.50
2023-02-12T17:44:13.288Z,9.23
2023-02-12T17:46:39.923Z,8.43
2023-02-12T17:49:06.555Z,8.68
2023-02-12T17:51:33.286Z,8.60
2023-02-12T17:53:59.995Z,8.82
2023-02-12T17:56:26.716Z,9.88
2023-02-12T17:58:53.462Z,10.45
2023-02-12T18:01:22.576Z,9.18
2023-02-12T18:03:52.391Z,10.10
2023-02-12T18:06:25.753Z,9.25
2023-02-12T18:08:52.761Z,10.35
2023-02-12T18:11:20.277Z,10.65
2023-02-12T18:13:47.338Z,11.05
2023-02-12T18:16:14.608Z,11.82
2023-02-12T18:18:41.400Z,10.57
2023-02-12T18:21:13.702Z,9.40
2023-02-12T18:23:40.677Z,8.98
2023-02-12T18:26:16.134Z,14.80
2023-02-12T18:28:42.917Z,14.60
2023-02-12T18:31:10.986Z,15.57
2023-02-12T18:33:38.823Z,13.20
2023-02-12T18:36:11.267Z,13.95
2023-02-12T18:38:39.766Z,14.02
2023-02-12T18:41:22.024Z,14.03
2023-02-12T18:43:48.662Z,12.75
2023-02-12T18:46:21.709Z,14.80
2023-02-12T18:48:49.161Z,15.15
2023-02-12T18:51:22.655Z,13.38
2023-02-12T18:54:05.902Z,11.63
2023-02-12T18:56:36.480Z,10.90
2023-02-12T18:59:05.213Z,11.80
2023-02-12T19:01:33.202Z,11.40
2023-02-12T19:04:01.445Z,12.80
2023-02-12T19:06:29.936Z,12.43
2023-02-12T19:08:58.348Z,12.65
2023-02-12T19:11:26.523Z,13.40
2023-02-12T19:13:53.807Z,12.20
2023-02-12T19:16:21.829Z,12.43
2023-02-12T19:18:49.362Z,10.90
2023-02-12T19:21:19.849Z,13.40
2023-02-12T19:23:46.947Z,14.73
2023-02-12T19:26:16.335Z,16.05
2023-02-12T19:31:15.652Z,15.35
2023-02-12T19:33:43.611Z,12.95
2023-02-12T19:36:12.416Z,12.43
2023-02-12T19:38:39.478Z,12.60
2023-02-12T19:41:13.596Z,12.60
2023-02-12T19:43:40.562Z,11.75
2023-02-12T19:46:10.526Z,11.38
2023-02-12T19:48:37.600Z,12.05
2023-02-12T19:51:04.807Z,12.15
2023-02-12T19:53:31.893Z,14.48
2023-02-12T19:56:05.165Z,14.15
2023-02-12T19:58:31.905Z,13.82
2023-02-12T20:00:59.074Z,12.00
2023-02-12T20:03:26.657Z,14.43
2023-02-12T20:06:05.245Z,13.30
2023-02-12T20:08:33.180Z,11.53
2023-02-12T20:10:59.880Z,12.80
2023-02-12T20:13:26.512Z,13.57
2023-02-12T20:15:53.911Z,13.40
2023-02-12T20:18:20.625Z,13.77
2023-02-12T20:20:47.216Z,12.85
2023-02-12T20:23:13.928Z,12.95
2023-02-12T20:25:44.975Z,13.32
2023-02-12T20:28:11.699Z,14.75
2023-02-12T20:30:42.756Z,13.50
2023-02-12T20:33:10.438Z,13.57
2023-02-12T20:35:37.569Z,14.35
2023-02-12T20:38:05.753Z,14.10
2023-02-12T20:40:33.074Z,12.15
2023-02-12T20:43:00.760Z,15.55
2023-02-12T20:45:28.090Z,16.63
2023-02-12T20:47:54.807Z,13.27
2023-02-12T20:50:21.364Z,14.52
2023-02-12T20:52:48.126Z,13.95
2023-02-12T20:55:14.784Z,13.57
2023-02-12T20:57:41.443Z,13.43
2023-02-12T21:00:08.700Z,13.48
2023-02-12T21:02:35.535Z,12.43
2023-02-12T21:05:02.286Z,13.38
2023-02-12T21:07:28.912Z,15.07
2023-02-12T21:09:55.598Z,12.57
2023-02-12T21:12:22.215Z,13.80
2023-02-12T21:14:48.918Z,11.48
2023-02-12T21:17:15.571Z,11.48
2023-02-12T21:19:42.281Z,11.02
2023-02-12T21:22:08.982Z,11.30
2023-02-12T21:24:35.678Z,10.63
2023-02-12T21:27:02.282Z,11.25
2023-02-12T21:29:33.162Z,10.50
2023-02-12T21:32:01.105Z,10.35
2023-02-12T21:34:27.993Z,12.15
2023-02-12T21:36:56.107Z,12.15
2023-02-12T21:39:28.157Z,10.55
2023-02-12T21:42:00.934Z,11.32
2023-02-12T21:44:28.501Z,11.88
2023-02-12T21:46:55.362Z,10.75
2023-02-12T21:49:26.498Z,7.78
2023-02-12T21:51:58.815Z,7.80
2023-02-12T21:54:25.990Z,7.50
2023-02-12T21:56:52.935Z,6.55
2023-02-12T21:59:19.714Z,6.30
2023-02-12T22:01:53.104Z,6.20
2023-02-12T22:04:20.168Z,5.95
2023-02-12T22:06:49.434Z,5.53
2023-02-12T22:09:18.706Z,4.28
2023-02-12T22:11:45.638Z,3.67
2023-02-12T22:14:16.736Z,2.78
2023-02-12T22:16:44.268Z,2.75
2023-02-12T22:19:11.059Z,2.60
2023-02-12T22:21:40.232Z,3.47
2023-02-12T22:24:08.827Z,3.20
2023-02-12T22:26:35.781Z,3.23
2023-02-12T22:29:06.484Z,3.83
2023-02-12T22:31:36.391Z,2.80
2023-02-12T22:34:06.764Z,3.45
2023-02-12T22:36:35.633Z,4.13
2023-02-12T22:39:02.614Z,4.35
2023-02-12T22:41:29.366Z,4.20
2023-02-12T22:43:59.042Z,3.90
2023-02-12T22:46:26.438Z,5.05
2023-02-12T22:48:53.082Z,4.22
2023-02-12T22:51:23.459Z,4.85
2023-02-12T22:53:50.298Z,4.18
2023-02-12T22:56:17.250Z,4.43
2023-02-12T22:58:44.615Z,5.53
2023-02-12T23:01:16.393Z,4.63
2023-02-12T23:03:44.036Z,4.40
2023-02-12T23:06:12.837Z,3.42
2023-02-12T23:08:40.221Z,3.42
2023-02-12T23:11:08.528Z,3.88
2023-02-12T23:13:36.213Z,4.10
2023-02-12T23:16:03.364Z,4.18
2023-02-12T23:18:30.355Z,3.92
2023-02-12T23:20:57.375Z,4.28
2023-02-12T23:23:24.207Z,3.60
2023-02-12T23:25:51.276Z,4.35
2023-02-12T23:28:17.979Z,3.53
2023-02-12T23:30:44.652Z,4.32
2023-02-12T23:33:11.709Z,3.70
2023-02-12T23:35:38.448Z,3.45
2023-02-12T23:38:05.462Z,2.85
2023-02-12T23:40:33.475Z,2.95
2023-02-12T23:43:00.332Z,2.85
2023-02-12T23:45:28.002Z,3.10
2023-02-12T23:47:55.251Z,2.85
2023-02-12T23:50:22.388Z,3.10
2023-02-12T23:52:49.492Z,3.35
2023-02-12T23:55:18.072Z,2.92
2023-02-12T23:57:45.038Z,3.10
